sensor_id;sensor_type;location;lat;lon;timestamp;temperature;humidity
23813;DHT22;12087;45.190;5.688;2023-02-01T00:03:35;3.90;99.90
23813;DHT22;12087;45.190;5.688;2023-02-01T00:08:57;3.90;99.90
23813;DHT22;12087;45.190;5.688;2023-02-01T00:14:20;3.90;99.90
23813;DHT22;12087;45.190;5.688;2023-02-01T00:19:43;3.90;99.90
23813;DHT22;12087;45.190;5.688;2023-02-01T00:25:07;3.90;99.90
23813;DHT22;12087;45.190;5.688;2023-02-01T00:30:29;3.90;99.90
23813;DHT22;12087;45.190;5.688;2023-02-01T00:35:56;3.80;99.90
23813;DHT22;12087;45.190;5.688;2023-02-01T00:41:20;3.80;99.90
23813;DHT22;12087;45.190;5.688;2023-02-01T00:46:45;3.70;99.90
23813;DHT22;12087;45.190;5.688;2023-02-01T00:52:09;3.50;99.90
23813;DHT22;12087;45.190;5.688;2023-02-01T00:57:31;3.40;99.90
23813;DHT22;12087;45.190;5.688;2023-02-01T01:02:53;3.40;99.90
23813;DHT22;12087;45.190;5.688;2023-02-01T01:08:18;3.40;99.90
23813;DHT22;12087;45.190;5.688;2023-02-01T01:13:40;3.40;99.90
23813;DHT22;12087;45.190;5.688;2023-02-01T01:19:03;3.40;99.90
23813;DHT22;12087;45.190;5.688;2023-02-01T01:24:27;3.50;99.90
23813;DHT22;12087;45.190;5.688;2023-02-01T01:29:50;3.50;99.90
23813;DHT22;12087;45.190;5.688;2023-02-01T01:35:12;3.50;99.90
23813;DHT22;12087;45.190;5.688;2023-02-01T01:40:36;3.50;99.90
23813;DHT22;12087;45.190;5.688;2023-02-01T01:45:58;3.60;99.90
23813;DHT22;12087;45.190;5.688;2023-02-01T01:51:21;3.50;99.90
23813;DHT22;12087;45.190;5.688;2023-02-01T01:56:49;3.50;99.90
23813;DHT22;12087;45.190;5.688;2023-02-01T02:02:13;3.60;99.90
23813;DHT22;12087;45.190;5.688;2023-02-01T02:07:37;3.50;99.90
23813;DHT22;12087;45.190;5.688;2023-02-01T02:13:02;3.50;99.90
23813;DHT22;12087;45.190;5.688;2023-02-01T02:18:29;3.60;99.90
23813;DHT22;12087;45.190;5.688;2023-02-01T02:24:22;3.60;99.90
23813;DHT22;12087;45.190;5.688;2023-02-01T02:35:48;3.60;99.90
23813;DHT22;12087;45.190;5.688;2023-02-01T02:41:17;3.60;99.90
23813;DHT22;12087;45.190;5.688;2023-02-01T02:46:59;3.60;99.90
23813;DHT22;12087;45.190;5.688;2023-02-01T02:52:48;3.60;99.90
23813;DHT22;12087;45.190;5.688;2023-02-01T02:58:30;3.60;99.90
23813;DHT22;12087;45.190;5.688;2023-02-01T03:04:09;3.60;99.90
23813;DHT22;12087;45.190;5.688;2023-02-01T03:09:40;3.60;99.90
23813;DHT22;12087;45.190;5.688;2023-02-01T03:15:07;3.50;99.90
23813;DHT22;12087;45.190;5.688;2023-02-01T03:20:30;3.50;99.90
23813;DHT22;12087;45.190;5.688;2023-02-01T03:25:56;3.60;99.90
23813;DHT22;12087;45.190;5.688;2023-02-01T03:31:20;3.60;99.90
23813;DHT22;12087;45.190;5.688;2023-02-01T03:36:47;3.50;99.90
23813;DHT22;12087;45.190;5.688;2023-02-01T03:42:16;3.40;99.90
23813;DHT22;12087;45.190;5.688;2023-02-01T03:47:43;3.50;99.90
23813;DHT22;12087;45.190;5.688;2023-02-01T03:53:10;3.50;99.90
23813;DHT22;12087;45.190;5.688;2023-02-01T03:58:34;3.50;99.90
23813;DHT22;12087;45.190;5.688;2023-02-01T04:03:57;3.40;99.90
23813;DHT22;12087;45.190;5.688;2023-02-01T04:09:20;3.40;99.90
23813;DHT22;12087;45.190;5.688;2023-02-01T04:14:43;3.40;99.90
23813;DHT22;12087;45.190;5.688;2023-02-01T04:20:06;3.40;99.90
23813;DHT22;12087;45.190;5.688;2023-02-01T04:25:29;3.40;99.90
23813;DHT22;12087;45.190;5.688;2023-02-01T04:30:53;3.30;99.90
23813;DHT22;12087;45.190;5.688;2023-02-01T04:36:15;3.40;99.90
23813;DHT22;12087;45.190;5.688;2023-02-01T04:41:40;3.40;99.90
23813;DHT22;12087;45.190;5.688;2023-02-01T04:47:04;3.40;99.90
23813;DHT22;12087;45.190;5.688;2023-02-01T04:52:26;3.40;99.90
23813;DHT22;12087;45.190;5.688;2023-02-01T04:57:49;3.40;99.90
23813;DHT22;12087;45.190;5.688;2023-02-01T05:03:12;3.50;99.90
23813;DHT22;12087;45.190;5.688;2023-02-01T05:08:35;3.40;99.90
23813;DHT22;12087;45.190;5.688;2023-02-01T05:13:57;3.40;99.90
23813;DHT22;12087;45.190;5.688;2023-02-01T05:19:21;3.40;99.90
23813;DHT22;12087;45.190;5.688;2023-02-01T05:24:44;3.40;99.90
23813;DHT22;12087;45.190;5.688;2023-02-01T05:30:07;3.30;99.90
23813;DHT22;12087;45.190;5.688;2023-02-01T05:35:31;3.30;99.90
23813;DHT22;12087;45.190;5.688;2023-02-01T05:40:53;3.30;99.90
23813;DHT22;12087;45.190;5.688;2023-02-01T05:46:16;3.30;99.90
23813;DHT22;12087;45.190;5.688;2023-02-01T05:51:39;3.40;99.90
23813;DHT22;12087;45.190;5.688;2023-02-01T05:57:02;3.40;99.90
23813;DHT22;12087;45.190;5.688;2023-02-01T06:02:24;3.40;99.90
23813;DHT22;12087;45.190;5.688;2023-02-01T06:07:48;3.40;99.90
23813;DHT22;12087;45.190;5.688;2023-02-01T06:13:11;3.40;99.90
23813;DHT22;12087;45.190;5.688;2023-02-01T06:18:34;3.40;99.90
23813;DHT22;12087;45.190;5.688;2023-02-01T06:23:57;3.30;99.90
23813;DHT22;12087;45.190;5.688;2023-02-01T06:29:19;3.30;99.90
23813;DHT22;12087;45.190;5.688;2023-02-01T06:34:42;3.40;99.90
23813;DHT22;12087;45.190;5.688;2023-02-01T06:40:07;3.30;99.90
23813;DHT22;12087;45.190;5.688;2023-02-01T06:45:30;3.30;99.90
23813;DHT22;12087;45.190;5.688;2023-02-01T06:50:52;3.30;99.90
23813;DHT22;12087;45.190;5.688;2023-02-01T06:56:16;3.30;99.90
23813;DHT22;12087;45.190;5.688;2023-02-01T07:01:38;3.30;99.90
23813;DHT22;12087;45.190;5.688;2023-02-01T07:07:01;3.30;99.90
23813;DHT22;12087;45.190;5.688;2023-02-01T07:12:24;3.30;99.90
23813;DHT22;12087;45.190;5.688;2023-02-01T07:17:47;3.30;99.90
23813;DHT22;12087;45.190;5.688;2023-02-01T07:23:10;3.30;99.90
23813;DHT22;12087;45.190;5.688;2023-02-01T07:28:35;3.30;99.90
23813;DHT22;12087;45.190;5.688;2023-02-01T07:33:58;3.30;99.90
23813;DHT22;12087;45.190;5.688;2023-02-01T07:39:21;3.30;99.90
23813;DHT22;12087;45.190;5.688;2023-02-01T07:44:45;3.30;99.90
23813;DHT22;12087;45.190;5.688;2023-02-01T07:50:08;3.30;99.90
23813;DHT22;12087;45.190;5.688;2023-02-01T07:55:30;3.40;99.90
23813;DHT22;12087;45.190;5.688;2023-02-01T08:00:54;3.40;99.90
23813;DHT22;12087;45.190;5.688;2023-02-01T08:06:34;3.50;99.90
23813;DHT22;12087;45.190;5.688;2023-02-01T08:11:56;3.50;99.90
23813;DHT22;12087;45.190;5.688;2023-02-01T08:17:20;3.50;99.90
23813;DHT22;12087;45.190;5.688;2023-02-01T08:22:42;3.60;99.90
23813;DHT22;12087;45.190;5.688;2023-02-01T08:28:05;3.60;99.90
23813;DHT22;12087;45.190;5.688;2023-02-01T08:33:28;3.60;99.90
23813;DHT22;12087;45.190;5.688;2023-02-01T08:38:51;3.50;99.90
23813;DHT22;12087;45.190;5.688;2023-02-01T08:44:13;3.60;99.90
23813;DHT22;12087;45.190;5.688;2023-02-01T08:49:37;3.50;99.90
23813;DHT22;12087;45.190;5.688;2023-02-01T08:54:59;3.60;99.90
23813;DHT22;12087;45.190;5.688;2023-02-01T09:00:22;3.70;99.90
23813;DHT22;12087;45.190;5.688;2023-02-01T09:05:45;4.00;99.90
23813;DHT22;12087;45.190;5.688;2023-02-01T09:11:11;4.10;99.90
23813;DHT22;12087;45.190;5.688;2023-02-01T09:16:34;4.20;99.90
23813;DHT22;12087;45.190;5.688;2023-02-01T09:21:58;4.20;99.90
23813;DHT22;12087;45.190;5.688;2023-02-01T09:27:20;4.30;99.90
23813;DHT22;12087;45.190;5.688;2023-02-01T09:32:43;4.40;99.90
23813;DHT22;12087;45.190;5.688;2023-02-01T09:38:10;4.50;99.90
23813;DHT22;12087;45.190;5.688;2023-02-01T09:43:41;4.60;99.90
23813;DHT22;12087;45.190;5.688;2023-02-01T09:49:10;4.70;99.90
23813;DHT22;12087;45.190;5.688;2023-02-01T09:54:41;4.90;99.90
23813;DHT22;12087;45.190;5.688;2023-02-01T10:00:09;4.90;99.90
23813;DHT22;12087;45.190;5.688;2023-02-01T10:05:55;5.10;99.90
23813;DHT22;12087;45.190;5.688;2023-02-01T10:11:31;5.10;99.90
23813;DHT22;12087;45.190;5.688;2023-02-01T10:17:23;5.30;99.90
23813;DHT22;12087;45.190;5.688;2023-02-01T10:22:51;5.40;99.90
23813;DHT22;12087;45.190;5.688;2023-02-01T10:28:19;5.50;99.90
23813;DHT22;12087;45.190;5.688;2023-02-01T10:33:45;5.70;99.90
23813;DHT22;12087;45.190;5.688;2023-02-01T10:39:11;5.80;99.90
23813;DHT22;12087;45.190;5.688;2023-02-01T10:44:40;5.90;99.90
23813;DHT22;12087;45.190;5.688;2023-02-01T10:50:13;6.00;99.90
23813;DHT22;12087;45.190;5.688;2023-02-01T10:55:41;6.20;99.90
23813;DHT22;12087;45.190;5.688;2023-02-01T11:01:16;6.30;99.90
23813;DHT22;12087;45.190;5.688;2023-02-01T11:06:39;6.50;99.90
23813;DHT22;12087;45.190;5.688;2023-02-01T11:12:02;6.70;99.90
23813;DHT22;12087;45.190;5.688;2023-02-01T11:17:30;6.90;99.90
23813;DHT22;12087;45.190;5.688;2023-02-01T11:22:55;7.00;99.90
23813;DHT22;12087;45.190;5.688;2023-02-01T11:28:19;7.20;99.90
23813;DHT22;12087;45.190;5.688;2023-02-01T11:33:48;7.30;99.90
23813;DHT22;12087;45.190;5.688;2023-02-01T11:39:21;7.50;99.90
23813;DHT22;12087;45.190;5.688;2023-02-01T11:44:46;7.60;99.90
23813;DHT22;12087;45.190;5.688;2023-02-01T11:50:16;7.70;99.90
23813;DHT22;12087;45.190;5.688;2023-02-01T11:55:52;7.90;99.90
23813;DHT22;12087;45.190;5.688;2023-02-01T12:07:15;8.00;99.90
23813;DHT22;12087;45.190;5.688;2023-02-01T12:12:44;8.10;99.90
23813;DHT22;12087;45.190;5.688;2023-02-01T12:24:25;8.40;99.90
23813;DHT22;12087;45.190;5.688;2023-02-01T12:30:01;8.40;99.90
23813;DHT22;12087;45.190;5.688;2023-02-01T12:35:43;8.60;99.90
23813;DHT22;12087;45.190;5.688;2023-02-01T12:41:33;8.60;99.90
23813;DHT22;12087;45.190;5.688;2023-02-01T12:47:20;8.80;99.90
23813;DHT22;12087;45.190;5.688;2023-02-01T12:53:06;8.90;99.90
23813;DHT22;12087;45.190;5.688;2023-02-01T12:58:40;9.00;99.90
23813;DHT22;12087;45.190;5.688;2023-02-01T13:04:10;9.20;99.90
23813;DHT22;12087;45.190;5.688;2023-02-01T13:09:39;9.50;99.90
23813;DHT22;12087;45.190;5.688;2023-02-01T13:15:11;9.90;99.90
23813;DHT22;12087;45.190;5.688;2023-02-01T13:20:40;10.20;99.90
23813;DHT22;12087;45.190;5.688;2023-02-01T13:26:04;10.40;99.90
23813;DHT22;12087;45.190;5.688;2023-02-01T13:31:54;10.30;99.90
23813;DHT22;12087;45.190;5.688;2023-02-01T13:37:31;10.40;99.90
23813;DHT22;12087;45.190;5.688;2023-02-01T13:42:58;10.80;99.90
23813;DHT22;12087;45.190;5.688;2023-02-01T13:48:26;11.00;99.90
23813;DHT22;12087;45.190;5.688;2023-02-01T13:53:50;11.10;99.90
23813;DHT22;12087;45.190;5.688;2023-02-01T14:11:36;11.40;99.90
23813;DHT22;12087;45.190;5.688;2023-02-01T14:23:14;11.60;99.90
23813;DHT22;12087;45.190;5.688;2023-02-01T14:28:44;11.60;99.90
23813;DHT22;12087;45.190;5.688;2023-02-01T14:34:18;11.60;99.90
23813;DHT22;12087;45.190;5.688;2023-02-01T14:39:52;11.40;99.90
23813;DHT22;12087;45.190;5.688;2023-02-01T14:45:49;11.10;99.90
23813;DHT22;12087;45.190;5.688;2023-02-01T14:51:15;10.80;99.90
23813;DHT22;12087;45.190;5.688;2023-02-01T14:56:38;10.50;99.90
23813;DHT22;12087;45.190;5.688;2023-02-01T15:02:07;10.40;99.90
23813;DHT22;12087;45.190;5.688;2023-02-01T15:07:37;10.40;99.90
23813;DHT22;12087;45.190;5.688;2023-02-01T15:13:00;10.30;99.90
23813;DHT22;12087;45.190;5.688;2023-02-01T15:18:24;10.10;99.90
23813;DHT22;12087;45.190;5.688;2023-02-01T15:23:47;9.90;99.90
23813;DHT22;12087;45.190;5.688;2023-02-01T15:29:12;9.80;99.90
23813;DHT22;12087;45.190;5.688;2023-02-01T15:34:47;9.70;99.90
23813;DHT22;12087;45.190;5.688;2023-02-01T15:40:20;9.50;99.90
23813;DHT22;12087;45.190;5.688;2023-02-01T15:45:43;9.40;99.90
23813;DHT22;12087;45.190;5.688;2023-02-01T15:51:15;9.30;99.90
23813;DHT22;12087;45.190;5.688;2023-02-01T15:56:40;9.20;99.90
23813;DHT22;12087;45.190;5.688;2023-02-01T16:02:03;9.10;99.90
23813;DHT22;12087;45.190;5.688;2023-02-01T16:07:29;9.00;99.90
23813;DHT22;12087;45.190;5.688;2023-02-01T16:12:51;9.00;99.90
23813;DHT22;12087;45.190;5.688;2023-02-01T16:18:19;8.90;99.90
23813;DHT22;12087;45.190;5.688;2023-02-01T16:23:43;8.90;99.90
23813;DHT22;12087;45.190;5.688;2023-02-01T16:29:05;8.90;99.90
23813;DHT22;12087;45.190;5.688;2023-02-01T16:34:29;8.90;99.90
23813;DHT22;12087;45.190;5.688;2023-02-01T16:39:53;8.80;99.90
23813;DHT22;12087;45.190;5.688;2023-02-01T16:45:15;8.80;99.90
23813;DHT22;12087;45.190;5.688;2023-02-01T16:50:38;8.80;99.90
23813;DHT22;12087;45.190;5.688;2023-02-01T16:56:04;8.80;99.90
23813;DHT22;12087;45.190;5.688;2023-02-01T17:01:27;8.80;99.90
23813;DHT22;12087;45.190;5.688;2023-02-01T17:06:49;8.80;99.90
23813;DHT22;12087;45.190;5.688;2023-02-01T17:12:21;8.70;99.90
23813;DHT22;12087;45.190;5.688;2023-02-01T17:17:43;8.70;99.90
23813;DHT22;12087;45.190;5.688;2023-02-01T17:23:06;8.70;99.90
23813;DHT22;12087;45.190;5.688;2023-02-01T17:28:30;8.70;99.90
23813;DHT22;12087;45.190;5.688;2023-02-01T17:33:52;8.70;99.90
23813;DHT22;12087;45.190;5.688;2023-02-01T17:39:15;8.70;99.90
23813;DHT22;12087;45.190;5.688;2023-02-01T17:44:57;8.60;99.90
23813;DHT22;12087;45.190;5.688;2023-02-01T17:50:20;8.60;99.90
23813;DHT22;12087;45.190;5.688;2023-02-01T17:55:44;8.60;99.90
23813;DHT22;12087;45.190;5.688;2023-02-01T18:01:12;8.50;99.90
23813;DHT22;12087;45.190;5.688;2023-02-01T18:06:35;8.50;99.90
23813;DHT22;12087;45.190;5.688;2023-02-01T18:11:57;8.50;99.90
23813;DHT22;12087;45.190;5.688;2023-02-01T18:17:21;8.40;99.90
23813;DHT22;12087;45.190;5.688;2023-02-01T18:22:44;8.40;99.90
23813;DHT22;12087;45.190;5.688;2023-02-01T18:28:08;8.30;99.90
23813;DHT22;12087;45.190;5.688;2023-02-01T18:33:32;8.30;99.90
23813;DHT22;12087;45.190;5.688;2023-02-01T18:38:54;8.20;99.90
23813;DHT22;12087;45.190;5.688;2023-02-01T18:44:17;8.20;99.90
23813;DHT22;12087;45.190;5.688;2023-02-01T18:49:40;8.20;99.90
23813;DHT22;12087;45.190;5.688;2023-02-01T18:55:03;8.10;99.90
23813;DHT22;12087;45.190;5.688;2023-02-01T19:00:26;8.10;99.90
23813;DHT22;12087;45.190;5.688;2023-02-01T19:05:50;8.10;99.90
23813;DHT22;12087;45.190;5.688;2023-02-01T19:11:12;8.00;99.90
23813;DHT22;12087;45.190;5.688;2023-02-01T19:16:35;8.00;99.90
23813;DHT22;12087;45.190;5.688;2023-02-01T19:22:00;7.90;99.90
23813;DHT22;12087;45.190;5.688;2023-02-01T19:27:23;7.90;99.90
23813;DHT22;12087;45.190;5.688;2023-02-01T19:32:46;7.90;99.90
23813;DHT22;12087;45.190;5.688;2023-02-01T19:38:09;7.80;99.90
23813;DHT22;12087;45.190;5.688;2023-02-01T19:43:32;7.80;99.90
23813;DHT22;12087;45.190;5.688;2023-02-01T19:48:55;7.70;99.90
23813;DHT22;12087;45.190;5.688;2023-02-01T19:54:18;7.70;99.90
23813;DHT22;12087;45.190;5.688;2023-02-01T19:59:41;7.60;99.90
23813;DHT22;12087;45.190;5.688;2023-02-01T20:05:04;7.60;99.90
23813;DHT22;12087;45.190;5.688;2023-02-01T20:10:30;7.50;99.90
23813;DHT22;12087;45.190;5.688;2023-02-01T20:15:55;7.50;99.90
23813;DHT22;12087;45.190;5.688;2023-02-01T20:21:18;7.50;99.90
23813;DHT22;12087;45.190;5.688;2023-02-01T20:26:45;7.50;99.90
23813;DHT22;12087;45.190;5.688;2023-02-01T20:32:08;7.50;99.90
23813;DHT22;12087;45.190;5.688;2023-02-01T20:37:30;7.50;99.90
23813;DHT22;12087;45.190;5.688;2023-02-01T20:42:58;7.40;99.90
23813;DHT22;12087;45.190;5.688;2023-02-01T20:48:20;7.40;99.90
23813;DHT22;12087;45.190;5.688;2023-02-01T20:53:42;7.40;99.90
23813;DHT22;12087;45.190;5.688;2023-02-01T20:59:09;7.40;99.90
23813;DHT22;12087;45.190;5.688;2023-02-01T21:04:32;7.30;99.90
23813;DHT22;12087;45.190;5.688;2023-02-01T21:09:54;7.30;99.90
23813;DHT22;12087;45.190;5.688;2023-02-01T21:15:18;7.30;99.90
23813;DHT22;12087;45.190;5.688;2023-02-01T21:20:42;7.30;99.90
23813;DHT22;12087;45.190;5.688;2023-02-01T21:26:07;7.30;99.90
23813;DHT22;12087;45.190;5.688;2023-02-01T21:31:31;7.30;99.90
23813;DHT22;12087;45.190;5.688;2023-02-01T21:36:54;7.30;99.90
23813;DHT22;12087;45.190;5.688;2023-02-01T21:42:16;7.20;99.90
23813;DHT22;12087;45.190;5.688;2023-02-01T21:47:42;7.20;99.90
23813;DHT22;12087;45.190;5.688;2023-02-01T21:53:04;7.20;99.90
23813;DHT22;12087;45.190;5.688;2023-02-01T21:58:26;7.20;99.90
23813;DHT22;12087;45.190;5.688;2023-02-01T22:03:50;7.20;99.90
23813;DHT22;12087;45.190;5.688;2023-02-01T22:09:15;7.10;99.90
23813;DHT22;12087;45.190;5.688;2023-02-01T22:14:38;7.10;99.90
23813;DHT22;12087;45.190;5.688;2023-02-01T22:20:06;7.10;99.90
23813;DHT22;12087;45.190;5.688;2023-02-01T22:25:29;7.10;99.90
23813;DHT22;12087;45.190;5.688;2023-02-01T22:30:51;7.00;99.90
23813;DHT22;12087;45.190;5.688;2023-02-01T22:36:15;7.00;99.90
23813;DHT22;12087;45.190;5.688;2023-02-01T22:41:38;7.00;99.90
23813;DHT22;12087;45.190;5.688;2023-02-01T22:47:00;6.90;99.90
23813;DHT22;12087;45.190;5.688;2023-02-01T22:52:24;6.90;99.90
23813;DHT22;12087;45.190;5.688;2023-02-01T22:57:46;6.90;99.90
23813;DHT22;12087;45.190;5.688;2023-02-01T23:03:08;7.00;99.90
23813;DHT22;12087;45.190;5.688;2023-02-01T23:08:32;7.00;99.90
23813;DHT22;12087;45.190;5.688;2023-02-01T23:13:55;6.90;99.90
23813;DHT22;12087;45.190;5.688;2023-02-01T23:19:18;6.90;99.90
23813;DHT22;12087;45.190;5.688;2023-02-01T23:24:42;6.90;99.90
23813;DHT22;12087;45.190;5.688;2023-02-01T23:30:06;6.90;99.90
23813;DHT22;12087;45.190;5.688;2023-02-01T23:35:28;6.80;99.90
23813;DHT22;12087;45.190;5.688;2023-02-01T23:40:56;6.80;99.90
23813;DHT22;12087;45.190;5.688;2023-02-01T23:46:19;6.80;99.90
23813;DHT22;12087;45.190;5.688;2023-02-01T23:51:41;6.80;99.90
23813;DHT22;12087;45.190;5.688;2023-02-01T23:57:05;6.80;99.90
